Time;durP1;ratioP1;P1;durP2;ratioP2;P2;SDS_P1;SDS_P2;PMS_P1;PMS_P2;Temp;Humidity;BMP_temperature;BMP_pressure;BME280_temperature;BME280_humidity;BME280_pressure;Samples;Min_cycle;Max_cycle;Signal;HPM_P1;HPM_P2
2022/04/26 03:37:32;;;;;;;22.08;10.93;;;6.90;99.90;;;;;;5066439;28;20087;-69
2022/04/26 03:39:58;;;;;;;24.45;11.18;;;6.90;99.90;;;;;;5067176;28;20035;-69
2022/04/26 03:42:24;;;;;;;15.57;10.18;;;6.90;99.90;;;;;;5069060;28;20044;-69
2022/04/26 03:44:50;;;;;;;19.52;11.50;;;6.80;99.90;;;;;;5051202;28;20040;-69
2022/04/26 03:47:15;;;;;;;22.83;11.45;;;6.80;99.90;;;;;;5082496;28;20041;-69
2022/04/26 03:49:41;;;;;;;20.00;11.35;;;6.80;99.90;;;;;;5043758;28;20059;-69
2022/04/26 03:52:07;;;;;;;24.20;11.80;;;6.80;99.90;;;;;;5052565;28;20387;-69
2022/04/26 03:54:34;;;;;;;24.02;11.68;;;6.70;99.90;;;;;;5047915;28;20042;-69
2022/04/26 03:56:59;;;;;;;23.77;12.50;;;6.70;99.90;;;;;;5049474;28;20032;-69
2022/04/26 03:59:25;;;;;;;25.63;11.95;;;6.70;99.90;;;;;;5067299;28;20040;-69
2022/04/26 04:01:51;;;;;;;23.35;12.25;;;6.70;99.90;;;;;;5082600;28;20040;-69
2022/04/26 04:04:17;;;;;;;24.65;11.45;;;6.60;99.90;;;;;;5084284;28;20032;-69
2022/04/26 04:06:43;;;;;;;19.52;11.57;;;6.60;99.90;;;;;;5066880;28;20047;-69
2022/04/26 04:09:08;;;;;;;21.17;11.52;;;6.60;99.90;;;;;;5068657;28;20036;-69
2022/04/26 04:11:34;;;;;;;22.13;11.63;;;6.60;99.90;;;;;;5072474;28;20101;-69
2022/04/26 04:14:00;;;;;;;24.80;11.50;;;6.60;99.90;;;;;;5090131;28;20521;-69
2022/04/26 04:16:26;;;;;;;25.27;12.25;;;6.60;99.90;;;;;;5056304;28;20039;-69
2022/04/26 04:21:36;;;;;;;25.23;11.77;;;6.60;99.90;;;;;;5072413;28;20105;-69
2022/04/26 04:24:05;;;;;;;20.42;11.38;;;6.70;99.90;;;;;;5055004;28;20043;-69
2022/04/26 04:26:31;;;;;;;18.63;10.65;;;6.70;99.90;;;;;;5072071;28;20083;-69
2022/04/26 04:28:57;;;;;;;21.65;11.23;;;6.70;99.90;;;;;;5069241;28;20075;-69
2022/04/26 04:31:22;;;;;;;22.83;11.65;;;6.70;99.90;;;;;;5070919;28;20079;-69
2022/04/26 04:33:48;;;;;;;23.05;10.82;;;6.80;99.90;;;;;;5081916;28;20041;-69
2022/04/26 04:36:15;;;;;;;22.52;11.18;;;6.80;99.90;;;;;;5054691;28;20040;-69
2022/04/26 04:38:41;;;;;;;21.27;10.15;;;6.80;99.90;;;;;;5070177;28;20048;-69
2022/04/26 04:41:08;;;;;;;22.30;10.70;;;6.80;99.90;;;;;;5055459;28;20043;-69
2022/04/26 04:43:34;;;;;;;26.00;11.15;;;7.00;99.90;;;;;;5051062;28;20044;-69
2022/04/26 04:46:00;;;;;;;24.52;11.43;;;6.90;99.90;;;;;;5067110;28;20044;-69
2022/04/26 04:48:26;;;;;;;24.52;10.90;;;6.90;99.90;;;;;;5069988;28;20135;-69
2022/04/26 04:50:52;;;;;;;18.35;10.38;;;6.90;99.90;;;;;;5088573;28;20115;-69
2022/04/26 04:53:19;;;;;;;18.80;9.65;;;6.90;99.90;;;;;;5088592;28;20474;-69
2022/04/26 04:55:45;;;;;;;22.80;9.25;;;7.00;99.90;;;;;;5085561;28;20653;-69
2022/04/26 04:58:10;;;;;;;21.98;8.75;;;7.00;99.90;;;;;;5061497;28;20103;-69
2022/04/26 05:00:39;;;;;;;16.17;8.80;;;7.00;99.90;;;;;;5054045;28;20397;-69
2022/04/26 05:03:04;;;;;;;18.60;9.18;;;7.00;99.90;;;;;;5066057;28;20047;-70
2022/04/26 05:05:30;;;;;;;22.77;8.65;;;7.00;99.90;;;;;;5069617;28;20044;-69
2022/04/26 05:07:58;;;;;;;16.67;8.07;;;7.00;99.90;;;;;;5071026;28;20485;-69
2022/04/26 05:10:24;;;;;;;19.25;8.15;;;7.10;99.90;;;;;;5054674;28;20036;-69
2022/04/26 05:12:50;;;;;;;14.77;8.27;;;7.00;99.90;;;;;;5069233;28;20040;-69
2022/04/26 05:15:16;;;;;;;18.63;8.05;;;7.10;99.90;;;;;;5054153;28;20036;-69
2022/04/26 05:17:44;;;;;;;19.80;8.35;;;7.10;99.90;;;;;;5070814;28;20043;-69
2022/04/26 05:20:10;;;;;;;19.65;8.43;;;7.10;99.90;;;;;;5040079;28;20047;-69
2022/04/26 05:25:25;;;;;;;14.93;7.47;;;7.10;99.90;;;;;;5075817;28;20047;-69
2022/04/26 05:27:50;;;;;;;25.55;8.68;;;7.10;99.90;;;;;;5069645;28;20485;-69
2022/04/26 05:30:16;;;;;;;14.38;7.60;;;7.10;99.90;;;;;;5060947;28;20041;-69
2022/04/26 05:32:42;;;;;;;14.20;8.25;;;7.10;99.90;;;;;;5071241;28;20441;-69
2022/04/26 05:35:10;;;;;;;20.00;7.90;;;7.10;99.90;;;;;;5070514;28;20049;-70
2022/04/26 05:37:37;;;;;;;16.38;8.10;;;7.20;99.90;;;;;;5067338;28;20052;-70
2022/04/26 05:40:03;;;;;;;23.13;8.18;;;7.20;99.90;;;;;;5072679;28;20032;-70
2022/04/26 05:42:30;;;;;;;21.95;7.95;;;7.20;99.90;;;;;;5069370;28;20041;-70
2022/04/26 05:44:56;;;;;;;16.52;7.85;;;7.20;99.90;;;;;;5070195;28;20037;-70
2022/04/26 05:47:22;;;;;;;20.00;7.97;;;7.20;99.90;;;;;;5070768;28;20052;-69
2022/04/26 05:49:48;;;;;;;16.45;7.75;;;7.30;99.90;;;;;;5058230;28;20032;-70
2022/04/26 05:52:14;;;;;;;19.92;8.38;;;7.30;99.90;;;;;;5033967;28;20043;-70
2022/04/26 05:54:40;;;;;;;16.02;7.63;;;7.30;99.90;;;;;;5060108;28;20037;-69
2022/04/26 05:57:05;;;;;;;20.33;8.05;;;7.30;99.90;;;;;;5064878;28;20082;-70
2022/04/26 05:59:32;;;;;;;14.48;7.65;;;7.40;99.90;;;;;;5057952;28;20037;-69
2022/04/26 06:01:57;;;;;;;15.40;6.97;;;7.40;99.90;;;;;;5084353;28;20044;-70
2022/04/26 06:04:25;;;;;;;14.93;7.70;;;7.40;99.90;;;;;;5071630;28;20044;-70
2022/04/26 06:06:51;;;;;;;13.27;6.70;;;7.40;99.90;;;;;;5058063;28;20047;-70
2022/04/26 06:09:16;;;;;;;15.77;7.78;;;7.50;99.90;;;;;;5046415;28;20044;-70
2022/04/26 06:11:43;;;;;;;17.08;7.72;;;7.50;99.90;;;;;;5064551;28;20037;-70
2022/04/26 06:14:09;;;;;;;14.27;7.18;;;7.60;99.90;;;;;;5088977;28;20545;-70
2022/04/26 06:16:34;;;;;;;15.82;7.75;;;7.60;99.90;;;;;;5069118;28;20043;-70
2022/04/26 06:19:01;;;;;;;13.93;7.15;;;7.70;99.90;;;;;;5068216;28;20433;-70
2022/04/26 06:21:26;;;;;;;20.50;7.97;;;7.70;99.90;;;;;;5068901;28;20040;-70
2022/04/26 06:23:52;;;;;;;22.10;7.00;;;7.80;99.90;;;;;;5046504;28;20036;-70
2022/04/26 06:26:18;;;;;;;15.50;7.20;;;7.90;99.90;;;;;;5051587;28;20063;-70
2022/04/26 06:28:44;;;;;;;16.10;7.35;;;7.90;99.90;;;;;;5064239;28;20064;-70
2022/04/26 06:31:10;;;;;;;14.40;6.70;;;7.90;99.90;;;;;;5049419;28;20047;-70
2022/04/26 06:33:36;;;;;;;11.45;6.20;;;8.00;99.90;;;;;;5066556;28;20029;-70
2022/04/26 06:36:03;;;;;;;11.38;6.85;;;7.90;99.90;;;;;;5065020;28;20056;-70
2022/04/26 06:38:29;;;;;;;14.32;6.93;;;7.90;99.90;;;;;;5061549;28;20052;-70
2022/04/26 06:40:54;;;;;;;13.23;6.55;;;8.00;99.90;;;;;;5066938;28;20047;-71
2022/04/26 06:43:21;;;;;;;13.45;6.35;;;8.00;99.90;;;;;;5064155;28;20406;-70
2022/04/26 06:45:47;;;;;;;15.13;6.25;;;8.10;99.90;;;;;;5057520;28;20071;-70
2022/04/26 06:48:14;;;;;;;20.50;7.00;;;8.10;99.90;;;;;;5066343;28;20195;-70
2022/04/26 06:50:40;;;;;;;11.50;6.10;;;8.30;99.90;;;;;;5023139;28;20120;-71
2022/04/26 06:53:07;;;;;;;16.13;6.30;;;8.30;99.90;;;;;;5070195;28;20132;-70
2022/04/26 06:55:34;;;;;;;16.00;6.43;;;8.30;99.90;;;;;;5063902;28;20130;-72
2022/04/26 06:58:00;;;;;;;12.45;6.93;;;8.30;99.90;;;;;;5059977;28;20079;-70
2022/04/26 07:00:26;;;;;;;11.65;6.28;;;8.30;99.90;;;;;;5065175;28;20497;-70
2022/04/26 07:02:53;;;;;;;18.73;6.45;;;8.30;99.90;;;;;;5065466;28;20041;-69
2022/04/26 07:05:19;;;;;;;15.48;6.82;;;8.30;99.90;;;;;;5065813;28;20049;-70
2022/04/26 07:07:48;;;;;;;11.45;7.07;;;8.30;99.90;;;;;;5055249;28;20378;-71
2022/04/26 07:10:14;;;;;;;18.85;7.70;;;8.30;99.90;;;;;;5054419;28;20064;-70
2022/04/26 07:12:39;;;;;;;16.73;7.60;;;8.30;99.90;;;;;;5052353;28;20052;-70
2022/04/26 07:15:05;;;;;;;13.30;6.75;;;8.30;99.90;;;;;;5058158;28;20105;-70
2022/04/26 07:17:31;;;;;;;10.73;6.72;;;8.30;99.90;;;;;;5040501;28;20036;-70
2022/04/26 07:20:00;;;;;;;12.02;7.10;;;8.30;99.90;;;;;;5040103;28;20051;-70
2022/04/26 07:22:27;;;;;;;14.05;7.57;;;8.40;99.90;;;;;;5056795;28;20457;-70
2022/04/26 07:24:53;;;;;;;12.02;7.10;;;8.50;99.90;;;;;;5057529;28;20037;-70
2022/04/26 07:27:20;;;;;;;12.60;6.38;;;8.70;99.90;;;;;;5059955;28;20048;-70
2022/04/26 07:29:49;;;;;;;14.35;7.05;;;8.80;99.90;;;;;;5042182;28;20045;-70
2022/04/26 07:32:18;;;;;;;10.95;6.38;;;8.90;99.90;;;;;;5039995;28;20748;-70
2022/04/26 07:34:45;;;;;;;11.27;5.80;;;9.00;99.90;;;;;;5058320;28;20435;-70
2022/04/26 07:37:11;;;;;;;9.95;6.22;;;9.20;99.90;;;;;;5053566;28;20046;-70
2022/04/26 07:39:37;;;;;;;13.93;7.05;;;9.20;99.90;;;;;;5066232;28;21556;-70
2022/04/26 07:42:04;;;;;;;13.45;5.57;;;9.40;99.90;;;;;;5081577;28;20037;-70
2022/04/26 07:44:31;;;;;;;14.43;6.28;;;9.50;99.90;;;;;;5073002;28;20105;-71
2022/04/26 07:46:58;;;;;;;12.80;6.13;;;9.50;99.90;;;;;;5051889;28;20040;-71
2022/04/26 07:49:26;;;;;;;12.02;5.70;;;9.60;99.90;;;;;;5070677;28;20050;-70
2022/04/26 07:51:52;;;;;;;9.73;5.88;;;9.60;99.90;;;;;;5071453;28;20427;-71
2022/04/26 07:54:17;;;;;;;8.68;5.35;;;9.60;99.90;;;;;;5052769;28;20037;-70
2022/04/26 07:56:44;;;;;;;14.75;6.07;;;9.60;99.90;;;;;;5071938;28;20040;-70
2022/04/26 07:59:10;;;;;;;8.25;6.07;;;9.60;99.90;;;;;;5052512;28;20032;-70
2022/04/26 08:01:36;;;;;;;11.45;6.13;;;9.60;99.90;;;;;;5069087;28;20098;-70
2022/04/26 08:04:03;;;;;;;11.70;5.93;;;9.60;99.90;;;;;;5050478;28;20055;-71
2022/04/26 08:06:28;;;;;;;13.50;5.93;;;9.50;99.90;;;;;;5054397;28;20055;-71
2022/04/26 08:08:55;;;;;;;13.60;6.50;;;9.50;99.90;;;;;;5051783;28;20033;-71
2022/04/26 08:11:21;;;;;;;8.30;5.70;;;9.60;99.90;;;;;;5050759;28;20032;-70
2022/04/26 08:13:48;;;;;;;10.35;5.35;;;9.70;99.90;;;;;;5071075;28;20083;-70
2022/04/26 08:16:13;;;;;;;11.85;5.78;;;9.80;99.90;;;;;;5069668;28;20043;-70
2022/04/26 08:18:39;;;;;;;11.15;6.03;;;9.90;99.90;;;;;;5051760;28;20041;-70
2022/04/26 08:21:09;;;;;;;11.82;5.80;;;10.00;99.90;;;;;;5051193;28;20379;-70
2022/04/26 08:27:22;;;;;;;14.88;5.40;;;10.20;99.90;;;;;;5046618;28;20040;-71
2022/04/26 08:29:06;;;;;;;8.07;5.35;;;10.40;99.90;;;;;;5054233;28;20444;-71
2022/04/26 08:31:32;;;;;;;8.02;4.97;;;10.70;99.90;;;;;;5054496;28;20144;-71
2022/04/26 08:33:58;;;;;;;9.10;5.47;;;10.80;99.90;;;;;;5051827;28;20124;-71
2022/04/26 08:36:24;;;;;;;12.35;5.30;;;10.90;99.90;;;;;;5051056;28;20044;-71
2022/04/26 08:38:50;;;;;;;11.75;5.20;;;10.80;99.90;;;;;;5067387;28;20040;-71
2022/04/26 08:41:16;;;;;;;8.05;5.22;;;10.90;99.90;;;;;;5053256;28;20043;-71
2022/04/26 08:43:41;;;;;;;7.90;5.03;;;11.10;99.90;;;;;;5071390;28;20090;-71
2022/04/26 08:46:07;;;;;;;11.82;5.35;;;11.20;99.90;;;;;;5053521;28;20089;-71
2022/04/26 08:51:17;;;;;;;8.43;5.50;;;11.20;99.90;;;;;;5053072;28;20054;-71
2022/04/26 08:53:47;;;;;;;9.20;5.18;;;11.20;99.90;;;;;;5050780;28;20115;-71
2022/04/26 08:56:13;;;;;;;13.80;4.80;;;11.40;99.90;;;;;;5064573;28;20036;-70
2022/04/26 08:58:39;;;;;;;9.52;4.82;;;11.40;99.90;;;;;;5050165;28;20562;-71
2022/04/26 09:01:18;;;;;;;13.18;5.25;;;11.60;99.90;;;;;;5050503;28;20064;-70
2022/04/26 09:03:58;;;;;;;6.70;4.70;;;11.70;99.90;;;;;;5056647;28;20071;-71
2022/04/26 09:06:45;;;;;;;10.40;5.00;;;11.60;99.90;;;;;;5076740;28;20043;-71
2022/04/26 09:09:21;;;;;;;9.82;4.90;;;11.60;99.90;;;;;;5069999;28;20052;-71
2022/04/26 09:11:48;;;;;;;11.30;4.90;;;11.60;99.90;;;;;;5082720;28;20169;-71
2022/04/26 09:14:52;;;;;;;8.63;4.75;;;11.50;99.90;;;;;;5068665;28;20040;-71
2022/04/26 09:17:20;;;;;;;9.43;4.40;;;11.70;99.90;;;;;;5006988;28;20045;-71
2022/04/26 09:19:50;;;;;;;7.78;5.07;;;11.70;99.90;;;;;;5027437;28;20045;-70
2022/04/26 09:22:20;;;;;;;6.78;4.82;;;11.80;99.90;;;;;;5041844;28;20039;-71
2022/04/26 09:24:56;;;;;;;8.63;5.00;;;12.20;99.90;;;;;;5072051;28;20561;-71
2022/04/26 09:27:22;;;;;;;7.07;4.47;;;12.70;99.90;;;;;;5085790;28;20533;-71
2022/04/26 09:29:48;;;;;;;8.73;4.40;;;12.90;99.90;;;;;;5062069;28;20040;-71
2022/04/26 09:32:13;;;;;;;8.48;4.22;;;12.90;99.90;;;;;;5057430;28;20502;-72
2022/04/26 09:34:39;;;;;;;9.35;4.28;;;12.90;99.90;;;;;;5071383;28;20051;-72
2022/04/26 09:37:05;;;;;;;7.18;3.92;;;13.30;99.90;;;;;;5024206;28;20052;-71
2022/04/26 09:39:32;;;;;;;10.00;4.43;;;13.00;98.10;;;;;;5058259;28;20040;-71
2022/04/26 09:41:58;;;;;;;11.85;4.30;;;12.60;97.70;;;;;;5055216;28;20093;-71
2022/04/26 09:44:34;;;;;;;5.80;3.90;;;12.40;98.20;;;;;;5057525;28;20048;-71
2022/04/26 09:47:00;;;;;;;8.30;4.03;;;12.40;98.30;;;;;;5071362;28;20040;-71
2022/04/26 09:49:34;;;;;;;7.93;4.40;;;12.20;97.90;;;;;;5053827;28;20036;-71
2022/04/26 09:52:01;;;;;;;7.35;4.55;;;12.30;98.80;;;;;;5069730;28;20045;-70
2022/04/26 09:54:27;;;;;;;8.13;4.20;;;12.30;99.20;;;;;;5086677;28;20036;-71
2022/04/26 09:56:53;;;;;;;9.32;4.35;;;12.50;99.40;;;;;;5066000;28;20039;-71
2022/04/26 09:59:29;;;;;;;5.18;4.38;;;12.60;99.50;;;;;;5068401;28;20040;-70
2022/04/26 10:01:57;;;;;;;8.77;4.28;;;12.70;99.00;;;;;;5088296;28;20040;-71
2022/04/26 10:04:25;;;;;;;10.77;5.10;;;12.80;99.10;;;;;;5043795;28;20119;-70
2022/04/26 10:06:56;;;;;;;11.65;4.65;;;12.90;99.20;;;;;;5087209;28;20083;-70
2022/04/26 10:09:23;;;;;;;7.05;4.25;;;12.80;98.40;;;;;;5071554;28;20138;-71
2022/04/26 10:11:54;;;;;;;9.20;4.32;;;12.90;98.20;;;;;;5057675;28;20074;-70
2022/04/26 10:14:21;;;;;;;9.23;3.92;;;12.90;98.30;;;;;;5059567;28;20055;-70
2022/04/26 10:16:47;;;;;;;8.60;4.50;;;13.10;97.80;;;;;;5059696;28;20040;-70
2022/04/26 10:19:13;;;;;;;8.23;4.28;;;13.10;97.10;;;;;;5055184;28;20378;-71
2022/04/26 10:21:39;;;;;;;8.73;3.70;;;13.30;97.20;;;;;;5055093;28;20056;-71
2022/04/26 10:24:13;;;;;;;7.53;3.70;;;13.50;97.50;;;;;;5069047;28;20068;-71
2022/04/26 10:26:39;;;;;;;9.52;4.00;;;14.00;96.90;;;;;;5064330;28;20044;-71
2022/04/26 10:29:08;;;;;;;7.75;4.10;;;14.40;96.90;;;;;;5091760;28;20400;-70
2022/04/26 10:31:41;;;;;;;7.35;4.30;;;14.30;96.00;;;;;;5074671;28;20050;-69
2022/04/26 10:34:17;;;;;;;8.05;3.90;;;14.20;95.30;;;;;;5060327;28;20036;-70
2022/04/26 10:36:44;;;;;;;8.35;3.83;;;13.90;95.60;;;;;;5063338;28;20118;-71
2022/04/26 10:39:12;;;;;;;12.57;4.40;;;13.60;94.60;;;;;;5088832;28;20044;-71
2022/04/26 10:41:40;;;;;;;8.70;4.05;;;13.70;95.80;;;;;;5074869;28;20101;-70
2022/04/26 10:44:15;;;;;;;5.65;3.90;;;14.10;95.30;;;;;;5091009;28;20093;-71
2022/04/26 10:46:43;;;;;;;13.02;3.90;;;14.20;94.40;;;;;;5064140;28;20040;-71
2022/04/26 10:49:22;;;;;;;10.25;3.80;;;14.00;94.50;;;;;;5058230;28;20123;-70
2022/04/26 10:51:48;;;;;;;8.82;3.67;;;13.80;93.80;;;;;;5074521;28;20039;-71
2022/04/26 10:54:14;;;;;;;10.35;3.83;;;13.70;94.30;;;;;;5057696;28;20040;-71
2022/04/26 10:56:39;;;;;;;6.82;4.32;;;13.80;93.80;;;;;;5050415;28;20612;-71
2022/04/26 10:59:12;;;;;;;7.50;4.10;;;14.00;94.10;;;;;;5054681;28;20068;-71
2022/04/26 11:01:39;;;;;;;9.88;4.10;;;14.20;92.00;;;;;;5070651;28;20087;-71
2022/04/26 11:04:05;;;;;;;6.25;3.80;;;14.60;93.30;;;;;;5074449;28;20361;-71
2022/04/26 11:06:37;;;;;;;6.35;4.10;;;14.60;92.70;;;;;;5060117;28;20051;-71
2022/04/26 11:09:11;;;;;;;8.63;3.90;;;14.80;92.30;;;;;;5066740;28;20040;-71
2022/04/26 11:12:09;;;;;;;9.70;3.70;;;14.70;92.10;;;;;;5071512;28;20385;-71
2022/04/26 11:14:45;;;;;;;6.85;4.45;;;14.40;92.10;;;;;;5030954;28;20048;-71
2022/04/26 11:17:11;;;;;;;6.78;3.90;;;14.50;92.90;;;;;;5074758;28;20036;-71
2022/04/26 11:19:38;;;;;;;7.50;3.65;;;14.40;92.60;;;;;;5058739;28;20043;-70
2022/04/26 11:22:09;;;;;;;9.60;4.47;;;14.30;92.40;;;;;;5076083;28;20051;-70
2022/04/26 11:30:07;;;;;;;9.77;4.15;;;14.50;92.70;;;;;;5073164;28;20084;-71
2022/04/26 11:32:43;;;;;;;6.82;3.90;;;14.30;91.90;;;;;;5059648;28;20515;-71
2022/04/26 11:35:10;;;;;;;5.85;3.50;;;14.20;91.10;;;;;;5058242;28;20560;-71
2022/04/26 11:37:47;;;;;;;9.57;4.13;;;14.40;91.80;;;;;;5037918;28;20068;-71
2022/04/26 11:40:25;;;;;;;8.38;3.90;;;14.80;91.30;;;;;;5058446;28;20600;-71
2022/04/26 11:42:52;;;;;;;6.35;3.65;;;15.20;91.10;;;;;;5055978;28;20076;-71
2022/04/26 11:45:21;;;;;;;6.35;3.75;;;15.60;91.00;;;;;;5058473;28;20084;-71
2022/04/26 11:47:48;;;;;;;6.50;4.00;;;15.80;90.60;;;;;;5064740;28;20601;-71
2022/04/26 11:50:22;;;;;;;7.30;4.07;;;15.70;89.10;;;;;;5050158;28;20100;-71
2022/04/26 11:52:50;;;;;;;7.10;4.13;;;15.50;89.90;;;;;;5068787;28;20055;-71
2022/04/26 11:55:27;;;;;;;8.30;4.55;;;15.60;89.60;;;;;;5070563;28;20036;-71
2022/04/26 11:58:05;;;;;;;7.38;3.67;;;15.40;86.70;;;;;;5056107;28;20518;-71
2022/04/26 12:00:33;;;;;;;7.38;3.95;;;15.20;87.70;;;;;;5057470;28;20047;-71
2022/04/26 12:02:59;;;;;;;7.82;4.10;;;15.20;87.50;;;;;;5069609;28;20040;-71
2022/04/26 12:05:25;;;;;;;11.40;4.47;;;15.70;89.80;;;;;;5050838;28;20102;-72
2022/04/26 12:07:51;;;;;;;6.72;4.15;;;16.00;85.90;;;;;;5054512;28;20041;-71
2022/04/26 12:10:28;;;;;;;6.90;3.95;;;16.10;85.90;;;;;;5048568;28;20049;-71
2022/04/26 12:13:01;;;;;;;8.10;4.15;;;16.30;86.00;;;;;;5053723;28;20050;-72
2022/04/26 12:15:32;;;;;;;6.85;3.63;;;16.40;83.60;;;;;;5058413;28;20076;-71
2022/04/26 12:18:10;;;;;;;6.97;3.65;;;16.20;83.60;;;;;;5056555;28;20041;-71
2022/04/26 12:20:37;;;;;;;5.90;3.90;;;16.10;82.30;;;;;;5067316;28;20037;-71
2022/04/26 12:23:07;;;;;;;4.80;3.75;;;15.60;82.10;;;;;;5059857;28;20098;-71
2022/04/26 12:25:34;;;;;;;4.70;4.13;;;15.80;83.10;;;;;;5038920;28;20510;-71
2022/04/26 12:28:08;;;;;;;6.35;3.88;;;16.10;83.40;;;;;;5043286;28;20041;-71
2022/04/26 12:30:37;;;;;;;8.07;4.05;;;16.40;82.10;;;;;;5067750;28;20071;-70
2022/04/26 12:33:05;;;;;;;6.50;4.00;;;16.00;81.40;;;;;;5068418;28;20068;-70
2022/04/26 12:35:31;;;;;;;7.50;4.70;;;16.00;82.50;;;;;;5062237;28;20063;-70
2022/04/26 12:38:07;;;;;;;6.07;4.63;;;15.90;82.40;;;;;;5077095;28;20031;-70
2022/04/26 12:40:34;;;;;;;9.05;4.68;;;16.10;81.20;;;;;;5072888;28;20051;-71
2022/04/26 12:43:00;;;;;;;7.72;3.70;;;16.30;81.30;;;;;;5042005;28;20481;-70
2022/04/26 12:45:26;;;;;;;9.07;3.83;;;16.40;79.70;;;;;;5072634;28;20046;-70
2022/04/26 12:51:33;;;;;;;6.60;3.63;;;16.10;76.80;;;;;;5067652;28;20055;-71
2022/04/26 12:54:11;;;;;;;8.73;4.25;;;15.80;78.30;;;;;;5011656;28;20045;-70
2022/04/26 12:56:37;;;;;;;6.18;4.32;;;15.50;80.20;;;;;;5051629;28;20087;-70
2022/04/26 12:59:03;;;;;;;9.20;4.05;;;15.40;81.10;;;;;;5055396;28;20063;-69
2022/04/26 13:01:29;;;;;;;6.90;3.80;;;15.50;81.40;;;;;;5061512;28;20123;-69
2022/04/26 13:03:57;;;;;;;6.53;3.40;;;15.90;81.20;;;;;;5051282;28;20394;-68
2022/04/26 13:06:25;;;;;;;8.15;4.15;;;15.90;77.50;;;;;;5059205;28;20431;-69
2022/04/26 13:08:51;;;;;;;6.93;3.83;;;15.90;79.50;;;;;;5042283;28;20055;-69
2022/04/26 13:11:19;;;;;;;6.85;3.40;;;16.20;79.50;;;;;;5071742;28;20112;-69
2022/04/26 13:13:48;;;;;;;7.50;3.47;;;16.40;79.30;;;;;;5078673;28;20040;-69
2022/04/26 13:16:13;;;;;;;5.55;3.47;;;16.10;77.90;;;;;;5064402;28;20059;-69
2022/04/26 13:18:40;;;;;;;6.82;3.72;;;15.80;78.40;;;;;;5054917;28;20492;-69
2022/04/26 13:21:06;;;;;;;5.60;3.53;;;15.70;78.80;;;;;;5067504;28;20266;-69
2022/04/26 13:23:34;;;;;;;10.32;3.80;;;15.60;78.80;;;;;;5055846;28;20048;-69
2022/04/26 13:26:00;;;;;;;5.50;3.20;;;15.40;78.80;;;;;;5058974;28;20071;-69
2022/04/26 13:28:30;;;;;;;6.93;3.53;;;15.70;79.70;;;;;;5069476;28;20048;-69
2022/04/26 13:30:55;;;;;;;7.53;3.60;;;15.90;77.80;;;;;;5084899;28;20056;-69
2022/04/26 13:33:21;;;;;;;6.80;3.35;;;16.00;76.00;;;;;;5050980;28;20541;-69
2022/04/26 13:35:48;;;;;;;7.57;3.90;;;16.00;76.00;;;;;;5074259;28;20402;-69
2022/04/26 13:38:15;;;;;;;6.50;3.40;;;16.00;76.80;;;;;;5068919;28;20585;-69
2022/04/26 13:40:45;;;;;;;7.82;3.67;;;15.80;76.60;;;;;;5067635;28;20370;-69
2022/04/26 13:43:11;;;;;;;6.95;3.42;;;15.80;77.70;;;;;;5054079;28;20124;-69
2022/04/26 13:45:38;;;;;;;5.57;3.25;;;16.50;78.80;;;;;;5055002;28;20171;-69
2022/04/26 13:48:11;;;;;;;9.00;3.83;;;16.90;77.30;;;;;;5074912;28;20036;-69
2022/04/26 13:50:38;;;;;;;11.13;3.88;;;17.40;77.60;;;;;;5054860;28;20052;-68
2022/04/26 13:53:04;;;;;;;7.03;3.55;;;17.80;76.40;;;;;;5054951;28;20038;-69
2022/04/26 13:55:30;;;;;;;7.82;3.40;;;18.10;73.10;;;;;;5071464;28;20044;-69
2022/04/26 13:57:56;;;;;;;10.65;3.63;;;18.60;69.70;;;;;;5060728;28;20036;-70
2022/04/26 14:00:25;;;;;;;8.27;3.72;;;18.90;68.50;;;;;;5071689;28;20128;-70
2022/04/26 14:02:50;;;;;;;5.30;3.10;;;19.20;67.30;;;;;;5054684;28;20040;-70
2022/04/26 14:05:18;;;;;;;5.93;3.35;;;18.70;65.00;;;;;;5053369;28;20041;-70
2022/04/26 14:07:46;;;;;;;7.82;3.20;;;19.10;66.60;;;;;;5090050;28;20552;-70
2022/04/26 14:10:16;;;;;;;8.00;3.03;;;19.30;66.50;;;;;;5065846;28;20032;-70
2022/04/26 14:12:41;;;;;;;3.03;2.75;;;18.90;65.20;;;;;;5073168;28;20381;-71
2022/04/26 14:23:21;;;;;;;6.28;2.78;;;18.30;65.80;;;;;;5084828;28;20135;-70
2022/04/26 14:25:50;;;;;;;4.07;2.97;;;18.30;65.70;;;;;;5056486;28;20174;-70
2022/04/26 14:28:16;;;;;;;6.00;3.35;;;18.20;65.50;;;;;;5070124;28;20078;-70
2022/04/26 14:30:42;;;;;;;4.10;2.90;;;18.60;65.10;;;;;;5069603;28;20051;-70
2022/04/26 14:33:08;;;;;;;7.85;3.13;;;18.80;64.30;;;;;;5066136;28;20404;-69
2022/04/26 14:35:34;;;;;;;5.63;2.90;;;18.90;63.50;;;;;;5057120;28;20393;-69
2022/04/26 14:38:00;;;;;;;7.55;2.90;;;19.30;63.20;;;;;;5079448;28;20066;-69
2022/04/26 14:40:26;;;;;;;4.15;2.88;;;19.30;61.60;;;;;;5081518;28;20039;-70
2022/04/26 14:42:55;;;;;;;5.38;2.60;;;19.50;61.50;;;;;;5061285;28;20083;-69
2022/04/26 14:45:24;;;;;;;4.90;3.10;;;19.20;61.10;;;;;;5063064;28;20136;-69
2022/04/26 14:47:50;;;;;;;4.95;3.00;;;18.60;61.70;;;;;;5079941;28;20481;-69
2022/04/26 14:50:18;;;;;;;6.45;2.83;;;18.40;61.10;;;;;;5079317;28;20043;-70
2022/04/26 14:52:44;;;;;;;5.38;2.90;;;18.40;62.00;;;;;;5062622;28;20047;-69
2022/04/26 14:55:10;;;;;;;4.15;2.75;;;18.00;60.80;;;;;;5081030;28;20035;-70
2022/04/26 14:57:36;;;;;;;7.50;2.97;;;17.80;61.50;;;;;;5064580;28;20093;-69
2022/04/26 15:00:07;;;;;;;6.88;3.17;;;17.90;62.60;;;;;;5082755;28;20560;-70
2022/04/26 15:02:38;;;;;;;4.97;2.70;;;18.00;61.60;;;;;;5060434;28;20497;-69
2022/04/26 15:05:07;;;;;;;4.25;2.97;;;18.00;61.70;;;;;;5044291;28;20048;-69
2022/04/26 15:09:42;;;;;;;3.33;2.60;;;18.00;60.70;;;;;;5079884;28;20035;-69
2022/04/26 15:10:19;;;;;;;5.57;2.55;;;17.90;60.00;;;;;;5061384;28;20181;-70
2022/04/26 15:18:13;;;;;;;5.20;3.30;;;18.70;60.80;;;;;;5064101;28;20040;-70
2022/04/26 15:20:45;;;;;;;3.92;2.67;;;18.80;60.00;;;;;;5046527;28;20036;-70
2022/04/26 15:23:15;;;;;;;4.23;2.63;;;18.80;60.60;;;;;;5061807;28;20043;-69
2022/04/26 15:25:41;;;;;;;5.53;2.75;;;19.00;60.70;;;;;;5057909;28;20330;-69
2022/04/26 15:28:08;;;;;;;5.03;2.38;;;19.10;59.40;;;;;;5061808;28;20485;-70
2022/04/26 15:30:42;;;;;;;4.45;2.40;;;19.20;58.80;;;;;;5080130;28;20520;-70
2022/04/26 15:33:08;;;;;;;7.88;2.67;;;18.50;59.20;;;;;;5062805;28;20045;-71
2022/04/26 15:35:34;;;;;;;8.05;3.00;;;18.40;60.00;;;;;;5059792;28;20040;-72
2022/04/26 15:37:59;;;;;;;5.28;2.55;;;17.90;61.00;;;;;;5082945;28;20102;-71
2022/04/26 15:40:25;;;;;;;4.28;2.90;;;17.80;61.00;;;;;;5077908;28;20031;-72
2022/04/26 15:42:51;;;;;;;5.03;2.72;;;17.60;62.40;;;;;;5051232;28;20393;-72
2022/04/26 15:45:17;;;;;;;5.03;3.08;;;18.20;62.50;;;;;;5046355;28;20043;-72
2022/04/26 15:47:42;;;;;;;2.90;2.50;;;18.40;61.40;;;;;;5065077;28;20039;-72
2022/04/26 15:50:08;;;;;;;4.72;2.92;;;18.80;61.50;;;;;;5059851;28;20043;-72
2022/04/26 15:52:35;;;;;;;4.72;2.80;;;18.80;60.10;;;;;;5040788;28;20667;-71
2022/04/26 15:55:01;;;;;;;7.20;2.63;;;19.20;60.50;;;;;;5063140;28;20036;-71
2022/04/26 15:57:27;;;;;;;4.88;2.70;;;18.80;61.00;;;;;;5081785;28;20548;-72
2022/04/26 15:59:53;;;;;;;5.20;3.38;;;18.60;62.10;;;;;;5033043;28;20260;-72
2022/04/26 16:02:23;;;;;;;6.68;2.97;;;18.20;62.90;;;;;;5065417;28;20093;-77
2022/04/26 16:04:49;;;;;;;8.07;3.03;;;18.20;63.80;;;;;;5045092;28;20048;-71
2022/04/26 16:07:15;;;;;;;6.85;3.10;;;18.20;63.50;;;;;;5063619;28;20063;-73
2022/04/26 16:20:38;;;;;;;5.65;2.97;;;17.60;63.50;;;;;;5086577;28;20071;-72
2022/04/26 16:23:05;;;;;;;5.63;3.40;;;17.70;64.00;;;;;;5054847;28;20777;-72
2022/04/26 16:25:32;;;;;;;5.45;3.15;;;17.80;63.80;;;;;;5054077;28;20401;-72
2022/04/26 16:28:00;;;;;;;7.10;3.10;;;17.50;63.30;;;;;;5054434;28;20435;-72
2022/04/26 16:30:32;;;;;;;4.05;3.03;;;17.30;64.10;;;;;;5055039;28;20497;-72
2022/04/26 16:33:05;;;;;;;6.43;3.17;;;17.30;64.50;;;;;;5053797;28;20078;-72
2022/04/26 16:35:32;;;;;;;6.38;3.10;;;17.20;63.80;;;;;;5068891;28;20341;-73
2022/04/26 16:37:59;;;;;;;5.00;3.40;;;17.00;64.90;;;;;;5055107;28;20101;-73
2022/04/26 16:40:26;;;;;;;8.40;2.90;;;16.90;64.50;;;;;;5070666;28;20036;-71
2022/04/26 16:42:52;;;;;;;5.03;2.97;;;16.70;64.90;;;;;;5069503;28;20300;-72
2022/04/26 16:45:21;;;;;;;5.43;3.45;;;16.80;64.90;;;;;;5070085;28;20127;-72
2022/04/26 16:47:51;;;;;;;7.53;3.30;;;16.40;64.90;;;;;;5087477;28;20509;-72
2022/04/26 16:50:17;;;;;;;5.03;3.05;;;15.90;65.80;;;;;;5069360;28;20044;-71
2022/04/26 16:52:46;;;;;;;6.20;3.00;;;15.40;67.50;;;;;;5035399;28;20047;-72
2022/04/26 16:55:12;;;;;;;9.40;6.70;;;15.20;67.00;;;;;;5053076;28;20074;-70
2022/04/26 16:57:37;;;;;;;9.43;5.53;;;14.90;67.40;;;;;;5062922;28;20032;-72
2022/04/26 17:00:07;;;;;;;5.78;3.20;;;14.60;68.50;;;;;;5069100;28;20512;-74
2022/04/26 17:02:33;;;;;;;5.13;3.00;;;14.70;68.80;;;;;;5063390;28;20847;-72
2022/04/26 17:05:05;;;;;;;5.35;3.08;;;14.90;69.10;;;;;;5076208;28;20555;-73
2022/04/26 17:07:31;;;;;;;4.90;2.92;;;15.00;68.30;;;;;;5065366;28;20101;-73
2022/04/26 17:09:57;;;;;;;5.35;3.13;;;15.00;68.00;;;;;;5022462;28;20036;-73